createdAt,value
2018-12-15T00:03:14.566Z,91.80
2018-12-15T00:08:21.079Z,91.70
2018-12-15T00:13:25.444Z,93.10
2018-12-15T00:18:29.341Z,93.50
2018-12-15T00:23:33.274Z,91.60
2018-12-15T00:28:36.961Z,89.10
2018-12-15T00:33:40.487Z,90.00
2018-12-15T00:38:44.157Z,90.10
2018-12-15T00:43:48.001Z,90.60
2018-12-15T00:48:51.486Z,90.70
2018-12-15T00:53:55.081Z,90.90
2018-12-15T00:58:58.581Z,91.50
2018-12-15T01:04:02.152Z,90.70
2018-12-15T01:09:06.362Z,91.10
2018-12-15T01:14:11.097Z,90.80
2018-12-15T01:19:14.536Z,90.70
2018-12-15T01:24:18.077Z,90.80
2018-12-15T01:29:21.821Z,91.40
2018-12-15T01:34:25.574Z,91.80
2018-12-15T01:39:29.075Z,91.90
2018-12-15T01:44:32.650Z,91.40
2018-12-15T01:49:36.267Z,91.40
2018-12-15T01:54:39.724Z,90.60
2018-12-15T01:59:43.270Z,90.80
2018-12-15T02:04:47.511Z,90.70
2018-12-15T02:09:51.049Z,91.20
2018-12-15T02:14:54.580Z,91.80
2018-12-15T02:19:58.266Z,91.90
2018-12-15T02:25:02.090Z,91.10
2018-12-15T02:35:20.296Z,90.70
2018-12-15T02:40:24.203Z,90.80
2018-12-15T02:45:27.668Z,91.20
2018-12-15T02:50:31.162Z,90.60
2018-12-15T02:55:34.601Z,90.40
2018-12-15T03:00:38.121Z,91.20
2018-12-15T03:05:41.701Z,91.10
2018-12-15T03:10:45.295Z,90.80
2018-12-15T03:15:48.882Z,90.20
2018-12-15T03:21:01.194Z,91.00
2018-12-15T03:26:06.151Z,90.90
2018-12-15T03:31:09.615Z,91.10
2018-12-15T03:36:13.154Z,91.00
2018-12-15T03:41:16.726Z,90.70
2018-12-15T03:46:20.192Z,91.60
2018-12-15T03:51:23.836Z,91.40
2018-12-15T03:56:27.554Z,91.10
2018-12-15T04:01:31.089Z,91.80
2018-12-15T04:06:34.702Z,92.20
2018-12-15T04:11:38.237Z,92.00
2018-12-15T04:16:41.815Z,92.00
2018-12-15T04:21:45.310Z,92.20
2018-12-15T04:26:48.795Z,92.70
2018-12-15T04:31:54.361Z,92.40
2018-12-15T04:36:58.589Z,92.70
2018-12-15T04:42:02.273Z,93.40
2018-12-15T04:47:06.308Z,93.20
2018-12-15T04:52:10.428Z,93.50
2018-12-15T04:57:14.301Z,93.60
2018-12-15T05:02:17.759Z,93.20
2018-12-15T05:07:21.302Z,94.00
2018-12-15T05:12:24.855Z,93.40
2018-12-15T05:17:28.262Z,93.10
2018-12-15T05:22:31.647Z,94.20
2018-12-15T05:27:35.040Z,93.30
2018-12-15T05:32:38.462Z,93.70
2018-12-15T05:37:42.019Z,93.60
2018-12-15T05:42:45.546Z,94.80
2018-12-15T05:47:48.958Z,93.90
2018-12-15T05:52:52.432Z,93.70
2018-12-15T05:57:56.116Z,94.40
2018-12-15T06:02:59.586Z,94.20
2018-12-15T06:08:04.066Z,93.70
2018-12-15T06:13:07.566Z,94.00
2018-12-15T06:18:11.459Z,94.10
2018-12-15T06:23:15.145Z,94.50
2018-12-15T06:28:18.631Z,94.60
2018-12-15T06:33:22.292Z,95.00
2018-12-15T06:38:25.995Z,95.00
2018-12-15T06:43:30.188Z,95.20
2018-12-15T06:48:38.087Z,95.20
2018-12-15T06:53:39.407Z,94.90
2018-12-15T06:58:42.958Z,95.20
2018-12-15T07:03:46.454Z,94.70
2018-12-15T07:08:49.948Z,94.70
2018-12-15T07:13:53.852Z,95.40
2018-12-15T07:18:57.466Z,96.30
2018-12-15T07:24:01.108Z,95.50
2018-12-15T07:29:04.809Z,95.30
2018-12-15T07:34:08.429Z,95.50
2018-12-15T07:39:12.183Z,95.50
2018-12-15T07:44:16.135Z,95.70
2018-12-15T07:49:19.722Z,96.00
2018-12-15T07:54:23.381Z,95.70
2018-12-15T07:59:27.092Z,95.50
2018-12-15T08:04:31.639Z,95.20
2018-12-15T08:09:35.593Z,95.50
2018-12-15T08:14:39.414Z,96.20
2018-12-15T08:19:43.083Z,95.60
2018-12-15T08:24:46.860Z,95.80
2018-12-15T08:29:50.537Z,95.60
2018-12-15T08:34:54.150Z,95.70
2018-12-15T08:39:57.866Z,95.70
2018-12-15T08:45:01.477Z,95.30
2018-12-15T08:50:05.478Z,95.10
2018-12-15T08:55:09.851Z,95.60
2018-12-15T09:00:13.691Z,94.70
2018-12-15T09:05:17.472Z,94.70
2018-12-15T09:10:21.048Z,95.10
2018-12-15T09:15:24.680Z,94.60
2018-12-15T09:20:28.238Z,94.60
2018-12-15T09:25:31.750Z,94.20
2018-12-15T09:30:35.340Z,95.60
2018-12-15T09:35:38.936Z,94.00
2018-12-15T09:40:42.762Z,92.70
2018-12-15T09:45:46.343Z,92.90
2018-12-15T09:50:49.941Z,91.30
2018-12-15T09:55:53.455Z,92.00
2018-12-15T10:00:56.957Z,92.80
2018-12-15T10:06:01.005Z,92.80
2018-12-15T10:11:04.828Z,93.00
2018-12-15T10:16:08.372Z,93.00
2018-12-15T10:21:11.811Z,92.90
2018-12-15T10:26:15.346Z,92.70
2018-12-15T10:31:25.838Z,91.90
2018-12-15T10:36:29.503Z,91.60
2018-12-15T10:41:33.168Z,92.10
2018-12-15T10:46:36.758Z,91.80
2018-12-15T10:51:42.453Z,91.90
2018-12-15T10:56:46.127Z,91.70
2018-12-15T11:01:49.703Z,91.60
2018-12-15T11:06:53.375Z,91.00
2018-12-15T11:11:57.975Z,90.90
2018-12-15T11:17:01.539Z,90.50
2018-12-15T11:22:05.160Z,89.60
2018-12-15T11:27:08.839Z,89.10
2018-12-15T11:32:12.376Z,90.00
2018-12-15T11:37:15.957Z,89.80
2018-12-15T11:42:19.894Z,89.70
2018-12-15T11:47:24.196Z,87.40
2018-12-15T11:52:27.750Z,87.30
2018-12-15T11:57:31.292Z,87.70
2018-12-15T12:02:34.833Z,87.20
2018-12-15T12:07:38.863Z,84.40
2018-12-15T12:12:42.377Z,85.00
2018-12-15T12:17:46.181Z,85.80
2018-12-15T12:22:49.811Z,86.10
2018-12-15T12:27:55.519Z,85.70
2018-12-15T12:32:59.459Z,84.40
2018-12-15T12:38:03.299Z,83.90
2018-12-15T12:43:07.777Z,84.70
2018-12-15T12:48:13.997Z,85.10
2018-12-15T12:58:32.872Z,84.30
2018-12-15T13:03:36.750Z,84.10
2018-12-15T13:08:42.489Z,83.30
2018-12-15T13:13:47.159Z,79.40
2018-12-15T13:18:52.826Z,79.20
2018-12-15T13:23:58.393Z,78.10
2018-12-15T13:29:02.519Z,77.40
2018-12-15T13:34:09.124Z,77.60
2018-12-15T13:39:14.574Z,77.90
2018-12-15T13:44:20.061Z,77.30
2018-12-15T13:49:25.142Z,76.90
2018-12-15T13:54:30.314Z,77.60
2018-12-15T13:59:36.196Z,76.90
2018-12-15T14:04:40.688Z,77.90
2018-12-15T14:09:45.910Z,77.50
2018-12-15T14:14:52.098Z,77.30
2018-12-15T14:19:57.187Z,77.30
2018-12-15T14:25:03.164Z,77.30
2018-12-15T14:30:08.552Z,76.50
2018-12-15T14:35:12.686Z,76.90
2018-12-15T14:40:18.873Z,76.70
2018-12-15T14:45:24.197Z,77.10
2018-12-15T14:50:29.168Z,78.90
2018-12-15T14:55:33.294Z,77.40
2018-12-15T15:00:37.335Z,79.10
2018-12-15T15:05:42.100Z,79.50
2018-12-15T15:10:46.424Z,76.60
2018-12-15T15:15:51.174Z,75.60
2018-12-15T15:20:58.668Z,75.50
2018-12-15T15:26:02.976Z,75.60
2018-12-15T15:31:14.046Z,74.80
2018-12-15T15:36:19.803Z,74.20
2018-12-15T15:41:24.144Z,74.80
2018-12-15T15:46:28.317Z,75.50
2018-12-15T15:51:32.706Z,75.90
2018-12-15T15:56:39.095Z,76.00
2018-12-15T16:01:43.323Z,77.00
2018-12-15T16:06:47.310Z,76.20
2018-12-15T16:11:51.299Z,76.60
2018-12-15T16:16:54.975Z,76.70
2018-12-15T16:21:59.392Z,78.20
2018-12-15T16:27:03.582Z,78.80
2018-12-15T16:32:07.754Z,80.00
2018-12-15T16:37:12.583Z,80.40
2018-12-15T16:42:17.034Z,81.60
2018-12-15T16:52:39.264Z,83.00
2018-12-15T16:57:44.762Z,83.20
2018-12-15T17:02:49.671Z,84.40
2018-12-15T17:07:54.007Z,84.70
2018-12-15T17:12:57.491Z,85.40
2018-12-15T17:18:01.947Z,86.00
2018-12-15T17:23:05.386Z,86.10
2018-12-15T17:28:09.055Z,86.60
2018-12-15T17:33:13.895Z,86.60
2018-12-15T17:38:17.633Z,86.80
2018-12-15T17:43:22.075Z,87.10
2018-12-15T17:48:25.811Z,87.10
2018-12-15T17:53:29.515Z,86.50
2018-12-15T17:58:33.254Z,86.30
2018-12-15T18:03:37.117Z,86.10
2018-12-15T18:08:40.809Z,86.40
2018-12-15T18:13:44.522Z,86.80
2018-12-15T18:18:48.762Z,86.60
2018-12-15T18:23:52.334Z,86.30
2018-12-15T18:28:56.019Z,86.20
2018-12-15T18:33:59.502Z,86.40
2018-12-15T18:39:04.967Z,86.10
2018-12-15T18:44:10.516Z,91.90
2018-12-15T18:49:14.146Z,84.90
2018-12-15T18:54:17.600Z,85.90
2018-12-15T18:59:21.661Z,86.60
2018-12-15T19:04:25.345Z,89.20
2018-12-15T19:09:28.786Z,88.00
2018-12-15T19:14:32.311Z,87.70
2018-12-15T19:19:35.705Z,88.70
2018-12-15T19:24:39.566Z,88.70
2018-12-15T19:29:43.103Z,88.20
2018-12-15T19:34:52.276Z,88.00
2018-12-15T19:39:52.045Z,87.10
2018-12-15T19:44:56.693Z,86.60
2018-12-15T19:50:00.636Z,85.90
2018-12-15T19:55:05.366Z,86.20
2018-12-15T20:00:09.530Z,86.60
2018-12-15T20:05:15.114Z,85.80
2018-12-15T20:10:21.496Z,84.20
2018-12-15T20:15:25.119Z,85.20
2018-12-15T20:20:29.102Z,85.10
2018-12-15T20:25:32.633Z,85.20
2018-12-15T20:30:36.105Z,85.70
2018-12-15T20:35:39.711Z,85.60
2018-12-15T20:40:43.203Z,86.00
2018-12-15T20:45:46.952Z,85.60
2018-12-15T20:50:50.414Z,85.80
2018-12-15T20:55:53.894Z,86.70
2018-12-15T21:00:57.390Z,87.50
2018-12-15T21:06:01.030Z,87.90
2018-12-15T21:11:04.554Z,87.00
2018-12-15T21:16:08.432Z,86.90
2018-12-15T21:21:12.078Z,87.30
2018-12-15T21:26:15.864Z,87.40
2018-12-15T21:31:19.343Z,87.60
2018-12-15T21:36:22.977Z,86.50
2018-12-15T21:41:26.442Z,86.80
2018-12-15T21:46:30.124Z,86.40
2018-12-15T21:51:33.715Z,87.30
2018-12-15T21:56:38.327Z,87.00
2018-12-15T22:01:42.112Z,86.60
2018-12-15T22:06:45.768Z,86.70
2018-12-15T22:11:49.590Z,86.80
2018-12-15T22:16:53.104Z,87.10
2018-12-15T22:22:02.795Z,87.90
2018-12-15T22:27:02.370Z,88.70
2018-12-15T22:32:06.475Z,88.70
2018-12-15T22:37:09.983Z,88.90
2018-12-15T22:42:13.720Z,89.70
2018-12-15T22:47:17.361Z,90.20
2018-12-15T22:52:27.794Z,90.50
2018-12-15T22:57:31.515Z,90.90
2018-12-15T23:02:36.458Z,91.40
2018-12-15T23:07:40.225Z,91.90
2018-12-15T23:12:43.655Z,92.30
2018-12-15T23:17:47.143Z,92.70
2018-12-15T23:22:50.654Z,93.40
2018-12-15T23:27:54.190Z,93.80
2018-12-15T23:32:57.805Z,94.00
2018-12-15T23:38:01.406Z,94.20
2018-12-15T23:43:04.880Z,94.70
2018-12-15T23:48:08.517Z,94.90
2018-12-15T23:53:12.156Z,95.00
2018-12-15T23:58:19.003Z,94.90
